Time;durP1;ratioP1;P1;durP2;ratioP2;P2;SDS_P1;SDS_P2;PMS_P1;PMS_P2;Temp;Humidity;BMP_temperature;BMP_pressure;BME280_temperature;BME280_humidity;BME280_pressure;Samples;Min_cycle;Max_cycle;Signal;HPM_P1;HPM_P2
2022/11/29 00:01:16;;;;;;;2.08;0.82;;;7.60;99.90;;;;;;5010372;28;20049;-83
2022/11/29 00:03:42;;;;;;;0.68;0.68;;;7.60;99.90;;;;;;5009782;28;20367;-84
2022/11/29 00:06:13;;;;;;;0.68;0.68;;;8.10;99.90;;;;;;4995827;28;20110;-83
2022/11/29 00:08:40;;;;;;;1.25;1.25;;;7.60;99.90;;;;;;5012252;28;20906;-82
2022/11/29 00:12:10;;;;;;;0.75;0.75;;;7.60;99.90;;;;;;5010137;28;20076;-83
2022/11/29 00:14:02;;;;;;;0.60;0.60;;;7.60;99.90;;;;;;5026701;28;20069;-82
2022/11/29 00:16:27;;;;;;;0.75;0.75;;;7.50;99.90;;;;;;4994168;28;20105;-82
2022/11/29 00:18:53;;;;;;;1.13;1.13;;;7.50;99.90;;;;;;4999156;28;20133;-83
2022/11/29 00:21:20;;;;;;;0.50;0.50;;;8.30;99.90;;;;;;4999274;28;20061;-83
2022/11/29 00:23:46;;;;;;;2.00;1.92;;;7.50;99.90;;;;;;5010481;28;20107;-85
2022/11/29 00:26:11;;;;;;;2.35;0.52;;;7.50;99.90;;;;;;5005408;28;20041;-82
2022/11/29 00:28:37;;;;;;;0.60;0.60;;;7.50;99.90;;;;;;5011167;28;20041;-82
2022/11/29 00:31:29;;;;;;;0.75;0.75;;;7.50;99.90;;;;;;5000105;28;20528;-82
2022/11/29 00:33:56;;;;;;;1.08;1.08;;;7.50;99.90;;;;;;5000388;28;20495;-84
2022/11/29 00:36:22;;;;;;;1.05;1.05;;;7.50;99.90;;;;;;5008021;28;20503;-83
2022/11/29 00:38:49;;;;;;;1.75;1.65;;;7.50;99.90;;;;;;5010139;28;20051;-82
2022/11/29 00:41:15;;;;;;;3.50;2.00;;;7.50;99.90;;;;;;5007982;28;20065;-82
2022/11/29 00:43:41;;;;;;;0.93;0.93;;;7.50;99.90;;;;;;5025830;28;20038;-83
2022/11/29 00:46:07;;;;;;;1.40;1.38;;;7.50;99.90;;;;;;5009406;28;20479;-82
2022/11/29 00:48:33;;;;;;;0.73;0.55;;;7.50;99.90;;;;;;5007976;28;20044;-83
2022/11/29 00:50:59;;;;;;;1.63;1.58;;;7.50;99.90;;;;;;5010549;28;20038;-82
2022/11/29 00:53:28;;;;;;;1.75;1.25;;;7.60;99.90;;;;;;5029270;28;20511;-83
2022/11/29 00:55:53;;;;;;;1.20;1.20;;;7.40;99.90;;;;;;5013888;28;20080;-84
2022/11/29 00:58:20;;;;;;;0.98;0.98;;;7.40;99.90;;;;;;5012026;28;20044;-83
2022/11/29 01:00:48;;;;;;;6.28;4.47;;;7.40;99.90;;;;;;5013616;28;20046;-83
2022/11/29 01:03:14;;;;;;;1.23;0.90;;;7.40;99.90;;;;;;4999334;28;20088;-83
2022/11/29 01:05:41;;;;;;;0.50;0.50;;;7.40;99.90;;;;;;4993394;28;20117;-82
2022/11/29 01:08:08;;;;;;;0.70;0.70;;;7.60;99.90;;;;;;4988185;28;20045;-83
2022/11/29 01:10:34;;;;;;;0.98;0.98;;;7.40;99.90;;;;;;5025883;28;20403;-83
2022/11/29 01:12:59;;;;;;;4.53;4.10;;;7.50;99.90;;;;;;5010797;28;20046;-82
2022/11/29 01:15:26;;;;;;;2.22;1.42;;;7.30;99.90;;;;;;5009902;28;20077;-82
2022/11/29 01:17:52;;;;;;;;;;;7.30;99.90;;;;;;5011507;28;20606;-81
2022/11/29 01:20:21;;;;;;;0.57;0.57;;;7.30;99.90;;;;;;5029045;28;19925;-80
2022/11/29 01:22:46;;;;;;;1.08;1.08;;;7.30;99.90;;;;;;5029009;28;20037;-83
2022/11/29 01:25:13;;;;;;;1.15;1.15;;;7.30;99.90;;;;;;5031351;28;20050;-82
2022/11/29 01:27:39;;;;;;;0.68;0.68;;;7.30;99.90;;;;;;5015923;28;20364;-82
2022/11/29 01:30:14;;;;;;;1.05;1.02;;;7.30;99.90;;;;;;5014857;28;20399;-82
2022/11/29 01:32:40;;;;;;;2.55;2.03;;;7.30;99.90;;;;;;5005704;28;20033;-82
2022/11/29 01:35:06;;;;;;;;;;;7.30;99.90;;;;;;5008794;28;20045;-81
2022/11/29 01:37:32;;;;;;;0.98;0.98;;;7.30;99.90;;;;;;5008353;28;19932;-81
2022/11/29 01:39:58;;;;;;;0.52;0.52;;;7.30;99.90;;;;;;4997646;28;20037;-82
2022/11/29 01:42:25;;;;;;;1.02;1.02;;;7.30;99.90;;;;;;5011219;28;20095;-83
2022/11/29 01:45:19;;;;;;;0.70;0.70;;;7.30;99.90;;;;;;5011201;28;20049;-82
2022/11/29 01:47:46;;;;;;;0.60;0.60;;;7.30;99.90;;;;;;5006028;28;20053;-82
2022/11/29 01:50:12;;;;;;;1.48;1.38;;;7.30;99.90;;;;;;5025850;28;20099;-82
2022/11/29 01:52:38;;;;;;;1.77;1.67;;;7.30;99.90;;;;;;4996987;28;20144;-83
2022/11/29 01:55:06;;;;;;;2.25;2.13;;;7.30;99.90;;;;;;5027237;28;20124;-84
2022/11/29 01:57:34;;;;;;;0.57;0.57;;;7.30;99.90;;;;;;5022066;28;20132;-84
2022/11/29 02:00:07;;;;;;;0.60;0.60;;;7.30;99.90;;;;;;5012872;28;20057;-83
2022/11/29 02:02:38;;;;;;;0.57;0.57;;;7.40;99.90;;;;;;5012584;28;20482;-83
2022/11/29 02:05:05;;;;;;;3.05;2.75;;;7.30;99.90;;;;;;4995037;28;20144;-83
2022/11/29 02:07:31;;;;;;;0.68;0.68;;;7.30;99.90;;;;;;5023718;28;20045;-83
2022/11/29 02:09:56;;;;;;;1.65;1.35;;;7.30;99.90;;;;;;4995839;28;20559;-83
2022/11/29 02:12:40;;;;;;;2.08;0.70;;;7.30;99.90;;;;;;5033590;28;20087;-82
2022/11/29 02:15:25;;;;;;;0.90;0.90;;;7.30;99.90;;;;;;5016265;28;20043;-84
2022/11/29 02:18:09;;;;;;;1.15;1.08;;;7.20;99.90;;;;;;5005901;28;20065;-83
2022/11/29 02:20:48;;;;;;;1.15;1.15;;;8.00;99.90;;;;;;5005498;28;20056;-82
2022/11/29 02:23:26;;;;;;;0.85;0.85;;;7.30;99.90;;;;;;5019837;28;20077;-84
2022/11/29 02:26:10;;;;;;;0.60;0.60;;;7.20;99.90;;;;;;5004864;28;20054;-82
2022/11/29 02:29:06;;;;;;;0.85;0.85;;;7.20;99.90;;;;;;5006723;28;21530;-83
2022/11/29 02:32:04;;;;;;;0.45;0.45;;;7.20;99.90;;;;;;5003241;28;20533;-81
2022/11/29 02:35:01;;;;;;;1.98;1.88;;;7.20;99.90;;;;;;5000385;28;20108;-83
2022/11/29 02:38:04;;;;;;;0.50;0.50;;;7.20;99.90;;;;;;4987069;28;20057;-83
2022/11/29 02:40:33;;;;;;;0.50;0.50;;;7.20;99.90;;;;;;4985806;28;20038;-83
2022/11/29 02:43:31;;;;;;;0.50;0.50;;;7.10;99.90;;;;;;4989411;28;20042;-82
2022/11/29 02:46:15;;;;;;;0.75;0.73;;;7.10;99.90;;;;;;5002027;28;20139;-83
2022/11/29 02:48:52;;;;;;;1.30;1.23;;;7.20;99.90;;;;;;4988818;28;20045;-83
2022/11/29 02:51:36;;;;;;;0.50;0.50;;;7.10;99.90;;;;;;5006484;28;20179;-83
2022/11/29 02:54:37;;;;;;;0.88;0.88;;;7.10;99.90;;;;;;5006652;28;20046;-83
2022/11/29 02:57:21;;;;;;;0.50;0.50;;;7.10;99.90;;;;;;5007088;28;20487;-83
2022/11/29 02:59:54;;;;;;;1.15;1.15;;;7.20;99.90;;;;;;5005723;28;20069;-83
2022/11/29 03:02:25;;;;;;;0.55;0.55;;;7.10;99.90;;;;;;5003943;28;20042;-81
2022/11/29 03:04:59;;;;;;;0.77;0.77;;;7.10;99.90;;;;;;4984145;28;20042;-82
2022/11/29 03:07:54;;;;;;;0.80;0.80;;;7.10;99.90;;;;;;5019517;28;20084;-82
2022/11/29 03:10:31;;;;;;;0.50;0.50;;;7.10;99.90;;;;;;5016356;28;20046;-81
2022/11/29 03:12:58;;;;;;;0.60;0.60;;;7.10;99.90;;;;;;4998520;28;20049;-81
2022/11/29 03:15:58;;;;;;;1.70;1.65;;;7.10;99.90;;;;;;4983297;28;20563;-81
2022/11/29 03:18:41;;;;;;;1.90;0.90;;;7.10;99.90;;;;;;4990817;28;20054;-81
2022/11/29 03:21:26;;;;;;;;;;;7.10;99.90;;;;;;4982180;28;20060;-81
2022/11/29 03:24:04;;;;;;;0.63;0.63;;;7.10;99.90;;;;;;5001087;28;19926;-82
2022/11/29 03:26:37;;;;;;;3.35;0.98;;;7.00;99.90;;;;;;4998006;28;20045;-81
2022/11/29 03:29:31;;;;;;;0.70;0.70;;;7.10;99.90;;;;;;4999641;28;20056;-81
2022/11/29 03:32:06;;;;;;;0.97;0.97;;;7.00;99.90;;;;;;5016725;28;20045;-83
2022/11/29 03:34:39;;;;;;;1.42;1.42;;;7.00;99.90;;;;;;4985021;28;20371;-83
2022/11/29 03:37:24;;;;;;;1.55;1.35;;;7.00;99.90;;;;;;5003455;28;20053;-82
2022/11/29 03:39:56;;;;;;;0.60;0.60;;;7.00;99.90;;;;;;5022095;28;20038;-84
2022/11/29 03:42:43;;;;;;;0.60;0.60;;;7.50;99.90;;;;;;5004268;28;20053;-83
2022/11/29 03:45:23;;;;;;;0.75;0.75;;;7.00;99.90;;;;;;5004054;28;20036;-82
2022/11/29 03:48:09;;;;;;;1.15;0.95;;;7.00;99.90;;;;;;5021767;28;20092;-83
2022/11/29 03:50:41;;;;;;;0.88;0.88;;;7.00;99.90;;;;;;5005244;28;20842;-82
2022/11/29 03:53:21;;;;;;;1.05;1.05;;;7.10;99.90;;;;;;5006592;28;21945;-83
2022/11/29 03:55:55;;;;;;;0.80;0.80;;;7.00;99.90;;;;;;5021260;28;20479;-84
2022/11/29 03:58:51;;;;;;;0.70;0.70;;;7.00;99.90;;;;;;5011004;28;20049;-83
2022/11/29 04:01:20;;;;;;;2.90;2.70;;;7.00;99.90;;;;;;5008003;28;20078;-84
2022/11/29 04:04:34;;;;;;;0.75;0.75;;;7.00;99.90;;;;;;5008161;28;20045;-85
2022/11/29 04:07:03;;;;;;;2.00;1.90;;;7.10;99.90;;;;;;5009504;28;20045;-82
2022/11/29 04:10:01;;;;;;;2.15;1.48;;;7.00;99.90;;;;;;4993904;28;20045;-82
2022/11/29 04:12:37;;;;;;;0.50;0.50;;;7.00;99.90;;;;;;4968319;28;20184;-83
2022/11/29 04:15:30;;;;;;;0.50;0.50;;;7.00;99.90;;;;;;5002144;28;20050;-82
2022/11/29 04:18:35;;;;;;;0.52;0.52;;;7.00;99.90;;;;;;5007389;28;20137;-81
2022/11/29 04:21:30;;;;;;;0.85;0.85;;;7.00;99.90;;;;;;4995510;28;20050;-83
2022/11/29 04:24:31;;;;;;;2.13;1.98;;;6.90;99.90;;;;;;5012995;28;20048;-83
2022/11/29 04:27:12;;;;;;;1.02;1.02;;;6.90;99.90;;;;;;4989287;28;20115;-82
2022/11/29 04:30:05;;;;;;;1.27;1.17;;;6.90;99.90;;;;;;5011309;28;20407;-82
2022/11/29 04:33:43;;;;;;;0.63;0.63;;;6.90;99.90;;;;;;5010666;28;20064;-83
2022/11/29 04:36:26;;;;;;;1.25;1.15;;;6.80;99.90;;;;;;4951742;28;20065;-82
2022/11/29 04:39:10;;;;;;;1.73;1.65;;;6.80;99.90;;;;;;4965358;28;20066;-82
2022/11/29 04:42:00;;;;;;;1.83;1.73;;;6.80;99.90;;;;;;4986102;28;20095;-82
2022/11/29 04:44:26;;;;;;;0.98;0.98;;;6.80;99.90;;;;;;5007273;28;21861;-82
2022/11/29 04:47:09;;;;;;;1.73;1.60;;;6.80;99.90;;;;;;5005694;28;20131;-82
2022/11/29 04:49:44;;;;;;;0.90;0.90;;;6.80;99.90;;;;;;5005537;28;20053;-82
2022/11/29 04:52:25;;;;;;;1.50;1.50;;;6.80;99.90;;;;;;5008446;28;21551;-83
2022/11/29 04:55:06;;;;;;;4.93;2.15;;;6.80;99.90;;;;;;5006628;28;20049;-83
2022/11/29 04:57:54;;;;;;;1.35;1.25;;;6.70;99.90;;;;;;5009962;28;20052;-82
2022/11/29 05:00:23;;;;;;;0.65;0.65;;;6.80;99.90;;;;;;5011354;28;20045;-82
2022/11/29 05:02:55;;;;;;;0.88;0.70;;;6.70;99.90;;;;;;5013294;28;20046;-82
2022/11/29 05:05:30;;;;;;;0.88;0.88;;;6.70;99.90;;;;;;5021632;28;20041;-81
2022/11/29 05:08:05;;;;;;;0.57;0.57;;;6.70;99.90;;;;;;5014333;28;20042;-83
2022/11/29 05:10:43;;;;;;;0.98;0.98;;;6.50;99.90;;;;;;5019452;28;20723;-81
2022/11/29 05:13:25;;;;;;;4.57;1.42;;;6.60;99.90;;;;;;5014931;28;20042;-82
2022/11/29 05:16:19;;;;;;;0.60;0.60;;;6.60;99.90;;;;;;5026891;28;20037;-82
2022/11/29 05:19:08;;;;;;;0.85;0.85;;;6.60;99.90;;;;;;4976796;28;20045;-82
2022/11/29 05:21:43;;;;;;;2.10;2.00;;;6.50;99.90;;;;;;5000492;28;20046;-82
2022/11/29 05:24:38;;;;;;;1.55;1.48;;;6.50;99.90;;;;;;5014481;28;20037;-84
2022/11/29 05:27:40;;;;;;;0.60;0.60;;;6.50;99.90;;;;;;5028868;28;20045;-82
2022/11/29 05:30:21;;;;;;;1.27;1.27;;;6.50;99.90;;;;;;5009874;28;20041;-82
2022/11/29 05:33:00;;;;;;;0.70;0.70;;;6.50;99.90;;;;;;5009822;28;20069;-83
2022/11/29 05:35:45;;;;;;;0.60;0.60;;;6.50;99.90;;;;;;5007485;28;20050;-84
2022/11/29 05:38:38;;;;;;;0.50;0.50;;;6.50;99.90;;;;;;5010700;28;20132;-82
2022/11/29 05:41:40;;;;;;;1.65;0.77;;;6.50;99.90;;;;;;5012988;28;20056;-83
2022/11/29 05:44:27;;;;;;;1.42;1.42;;;6.50;99.90;;;;;;5007097;28;20077;-84
2022/11/29 05:46:57;;;;;;;0.50;0.50;;;6.50;99.90;;;;;;4996635;28;20132;-83
2022/11/29 05:49:28;;;;;;;0.60;0.60;;;6.40;99.90;;;;;;5025043;28;20037;-83
2022/11/29 05:52:04;;;;;;;0.80;0.80;;;6.40;99.90;;;;;;5010548;28;20037;-83
2022/11/29 05:54:40;;;;;;;4.88;2.35;;;6.40;99.90;;;;;;5011047;28;20037;-83
2022/11/29 05:57:18;;;;;;;1.75;1.70;;;6.40;99.90;;;;;;5010093;28;20041;-83
2022/11/29 05:59:46;;;;;;;0.57;0.57;;;6.70;99.90;;;;;;5025469;28;20041;-82
2022/11/29 06:02:38;;;;;;;0.80;0.80;;;6.50;99.90;;;;;;5012748;28;20061;-82
2022/11/29 06:05:22;;;;;;;1.88;1.77;;;6.30;99.90;;;;;;5008672;28;20128;-82
2022/11/29 06:08:15;;;;;;;1.50;1.50;;;6.30;99.90;;;;;;5006755;28;20084;-82
2022/11/29 06:10:59;;;;;;;0.50;0.50;;;6.30;99.90;;;;;;5027661;28;20095;-83
2022/11/29 06:13:43;;;;;;;0.90;0.90;;;6.30;99.90;;;;;;5032360;28;20034;-84
2022/11/29 06:16:38;;;;;;;0.60;0.60;;;6.20;99.90;;;;;;5020087;28;20475;-83
2022/11/29 06:19:17;;;;;;;0.60;0.60;;;6.20;99.90;;;;;;4962246;28;20152;-83
2022/11/29 06:22:07;;;;;;;3.33;1.38;;;6.30;99.90;;;;;;5014614;28;20049;-85
2022/11/29 06:24:50;;;;;;;1.23;1.10;;;6.10;99.90;;;;;;5019490;28;20116;-84
2022/11/29 06:27:20;;;;;;;1.10;1.10;;;6.10;99.90;;;;;;5012306;28;20112;-83
2022/11/29 06:30:08;;;;;;;0.50;0.50;;;6.10;99.90;;;;;;4998877;28;20401;-84
2022/11/29 06:33:00;;;;;;;0.70;0.70;;;6.10;99.90;;;;;;5011284;28;20064;-83
2022/11/29 06:35:47;;;;;;;0.95;0.95;;;6.10;99.90;;;;;;5010107;28;20099;-84
2022/11/29 06:38:16;;;;;;;;;;;6.10;99.90;;;;;;5013661;28;20063;-83
2022/11/29 06:40:42;;;;;;;1.00;1.00;;;6.10;99.90;;;;;;5025689;28;19925;-85
2022/11/29 06:43:08;;;;;;;1.60;1.50;;;6.10;99.90;;;;;;5028371;28;20042;-83
2022/11/29 06:45:35;;;;;;;1.33;1.30;;;6.10;99.90;;;;;;5016511;28;20073;-84
2022/11/29 06:48:05;;;;;;;1.63;1.63;;;6.10;99.90;;;;;;4997141;28;20041;-85
2022/11/29 06:50:34;;;;;;;0.50;0.50;;;6.20;99.90;;;;;;5029210;28;20046;-84
2022/11/29 06:52:59;;;;;;;1.35;1.27;;;6.20;99.90;;;;;;5017861;28;20116;-84
2022/11/29 06:55:43;;;;;;;1.35;1.25;;;6.90;99.90;;;;;;5011111;28;20415;-84
2022/11/29 06:58:35;;;;;;;1.38;1.30;;;6.30;99.90;;;;;;5029355;28;20040;-83
2022/11/29 07:01:23;;;;;;;0.77;0.77;;;6.40;99.90;;;;;;5029323;28;20043;-82
2022/11/29 07:04:04;;;;;;;0.60;0.60;;;6.40;99.90;;;;;;5015064;28;20057;-81
2022/11/29 07:06:33;;;;;;;1.08;0.93;;;6.50;99.90;;;;;;5006916;28;20049;-82
2022/11/29 07:09:03;;;;;;;0.70;0.70;;;6.50;99.90;;;;;;5000876;28;20040;-82
2022/11/29 07:11:29;;;;;;;1.02;1.02;;;6.60;99.90;;;;;;4997317;28;20053;-81
2022/11/29 07:13:55;;;;;;;0.60;0.60;;;6.60;99.90;;;;;;5028744;28;20097;-82
2022/11/29 07:16:49;;;;;;;0.60;0.60;;;6.70;99.90;;;;;;5017543;28;20046;-81
2022/11/29 07:19:30;;;;;;;0.82;0.82;;;6.70;99.90;;;;;;5018237;28;20052;-82
2022/11/29 07:22:20;;;;;;;1.13;1.13;;;6.70;99.90;;;;;;5014406;28;20386;-81
2022/11/29 07:25:01;;;;;;;0.50;0.50;;;6.70;99.90;;;;;;5012807;28;20040;-82
2022/11/29 07:27:42;;;;;;;1.20;0.75;;;6.80;99.90;;;;;;5032038;28;20046;-81
2022/11/29 07:30:58;;;;;;;0.80;0.80;;;6.90;99.90;;;;;;5031082;28;20113;-83
2022/11/29 07:33:36;;;;;;;1.15;1.02;;;6.80;99.90;;;;;;4931689;28;20039;-82
2022/11/29 07:36:22;;;;;;;0.80;0.80;;;6.80;99.90;;;;;;4935739;28;20081;-83
2022/11/29 07:39:10;;;;;;;1.05;1.05;;;6.80;99.90;;;;;;5014242;28;20056;-83
2022/11/29 07:41:47;;;;;;;0.60;0.60;;;6.80;99.90;;;;;;5005919;28;20053;-83
2022/11/29 07:44:24;;;;;;;0.95;0.95;;;6.90;99.90;;;;;;5016259;28;20045;-81
2022/11/29 07:46:50;;;;;;;0.90;0.90;;;6.90;99.90;;;;;;5032245;28;20050;-82
2022/11/29 07:49:16;;;;;;;0.60;0.60;;;6.80;99.90;;;;;;4983689;28;20064;-82
2022/11/29 07:51:41;;;;;;;0.50;0.50;;;6.80;99.90;;;;;;5039082;28;20498;-82
2022/11/29 07:54:10;;;;;;;1.10;0.60;;;6.70;99.90;;;;;;5028471;28;20399;-82
2022/11/29 07:56:36;;;;;;;0.50;0.50;;;6.70;99.90;;;;;;5016870;28;20124;-83
2022/11/29 07:59:02;;;;;;;0.70;0.70;;;6.70;99.90;;;;;;4984555;28;20194;-82
2022/11/29 08:01:27;;;;;;;0.80;0.80;;;6.70;99.90;;;;;;5003374;28;20133;-81
2022/11/29 08:03:53;;;;;;;0.60;0.60;;;6.60;99.90;;;;;;5014225;28;20117;-82
2022/11/29 08:06:25;;;;;;;0.50;0.50;;;6.80;99.90;;;;;;4999970;28;20784;-82
2022/11/29 08:08:51;;;;;;;0.98;0.98;;;6.70;99.90;;;;;;5012601;28;20467;-82
2022/11/29 08:11:17;;;;;;;0.68;0.68;;;6.70;99.90;;;;;;5019252;28;20120;-83
2022/11/29 08:13:42;;;;;;;0.80;0.80;;;6.70;99.90;;;;;;5014993;28;20038;-82
2022/11/29 08:16:13;;;;;;;0.77;0.77;;;6.80;99.90;;;;;;4997927;28;20051;-82
2022/11/29 08:18:39;;;;;;;0.82;0.80;;;7.50;99.90;;;;;;5009841;28;20044;-81
2022/11/29 08:21:06;;;;;;;2.58;2.47;;;6.90;99.90;;;;;;5026393;28;20080;-82
2022/11/29 08:23:32;;;;;;;2.05;1.95;;;6.80;99.90;;;;;;5013801;28;20053;-83
2022/11/29 08:26:02;;;;;;;0.60;0.60;;;6.80;99.90;;;;;;4981673;28;20036;-81
2022/11/29 08:28:28;;;;;;;1.48;1.38;;;6.80;99.90;;;;;;5013092;28;20045;-82
2022/11/29 08:31:08;;;;;;;0.40;0.40;;;6.80;99.90;;;;;;4993797;28;20052;-82
2022/11/29 08:33:35;;;;;;;0.50;0.50;;;6.80;99.90;;;;;;5008453;28;20053;-83
2022/11/29 08:36:13;;;;;;;0.63;0.63;;;6.80;99.90;;;;;;4994614;28;20048;-81
2022/11/29 08:38:39;;;;;;;0.95;0.95;;;6.80;99.90;;;;;;4996156;28;20482;-82
2022/11/29 08:41:07;;;;;;;2.63;2.38;;;6.80;99.90;;;;;;4992541;28;20045;-83
2022/11/29 08:43:34;;;;;;;0.35;0.35;;;6.90;99.90;;;;;;5006718;28;20112;-83
2022/11/29 08:46:00;;;;;;;1.58;1.35;;;6.90;99.90;;;;;;5016482;28;20053;-82
2022/11/29 08:48:28;;;;;;;0.50;0.50;;;6.90;99.90;;;;;;5033692;28;20038;-82
2022/11/29 08:50:55;;;;;;;1.02;0.75;;;7.00;99.90;;;;;;5013102;28;20056;-83
2022/11/29 08:56:08;;;;;;;0.50;0.50;;;7.00;99.90;;;;;;5016476;28;20045;-83
2022/11/29 08:58:34;;;;;;;0.50;0.50;;;7.10;99.90;;;;;;4999483;28;20116;-82
2022/11/29 09:01:00;;;;;;;0.60;0.60;;;7.10;99.90;;;;;;5000419;28;20037;-82
2022/11/29 09:06:13;;;;;;;1.38;0.80;;;7.20;99.90;;;;;;4994896;28;20084;-82
2022/11/29 09:08:42;;;;;;;0.70;0.70;;;7.20;99.90;;;;;;5015239;28;20060;-82
2022/11/29 09:11:27;;;;;;;1.02;1.02;;;7.30;99.90;;;;;;5011941;28;20510;-83
2022/11/29 09:13:56;;;;;;;0.68;0.68;;;7.30;99.90;;;;;;5026302;28;20033;-82
2022/11/29 09:16:24;;;;;;;0.88;0.88;;;7.30;99.90;;;;;;5012760;28;20034;-83
2022/11/29 09:18:54;;;;;;;1.13;1.13;;;7.40;99.90;;;;;;5011520;28;20125;-83
2022/11/29 09:21:23;;;;;;;0.85;0.85;;;7.40;99.90;;;;;;5027489;28;20068;-82
2022/11/29 09:23:49;;;;;;;0.63;0.63;;;7.40;99.90;;;;;;5006428;28;20045;-82
2022/11/29 09:26:19;;;;;;;1.40;1.30;;;7.50;99.90;;;;;;5005489;28;20049;-82
2022/11/29 09:28:50;;;;;;;0.77;0.77;;;7.60;99.90;;;;;;5006332;28;20036;-84
2022/11/29 09:31:20;;;;;;;1.85;1.30;;;7.50;99.90;;;;;;5010988;28;20029;-85
2022/11/29 09:33:46;;;;;;;0.60;0.60;;;7.60;99.90;;;;;;5014034;28;20057;-87
2022/11/29 09:36:12;;;;;;;0.88;0.88;;;7.70;99.90;;;;;;5033853;28;20049;-84
2022/11/29 09:38:38;;;;;;;0.65;0.65;;;7.70;99.90;;;;;;5016659;28;20037;-85
2022/11/29 09:41:13;;;;;;;1.33;0.80;;;7.70;99.90;;;;;;5015624;28;20049;-86
2022/11/29 09:43:53;;;;;;;0.93;0.93;;;7.70;99.90;;;;;;5019490;28;20041;-84
2022/11/29 09:46:25;;;;;;;3.20;0.98;;;7.80;99.90;;;;;;5022706;28;20083;-83
2022/11/29 09:49:11;;;;;;;3.60;1.15;;;7.90;99.90;;;;;;5019047;28;20068;-85
2022/11/29 09:52:22;;;;;;;0.40;0.40;;;8.00;99.90;;;;;;4997277;28;20049;-85
2022/11/29 09:54:51;;;;;;;0.40;0.40;;;8.00;99.90;;;;;;4978233;28;20061;-83
2022/11/29 09:57:18;;;;;;;0.80;0.80;;;8.20;99.90;;;;;;5003631;28;20074;-84
2022/11/29 09:59:48;;;;;;;1.20;1.20;;;8.10;99.90;;;;;;5010398;28;20056;-86
2022/11/29 10:02:36;;;;;;;0.90;0.90;;;8.10;99.90;;;;;;5018639;28;20034;-85
2022/11/29 10:05:28;;;;;;;0.60;0.60;;;8.10;99.90;;;;;;5033430;28;20037;-83
2022/11/29 10:08:14;;;;;;;0.50;0.50;;;8.20;99.90;;;;;;5034113;28;20041;-86
2022/11/29 10:10:44;;;;;;;0.50;0.50;;;8.30;99.90;;;;;;5031071;28;20091;-88
2022/11/29 10:13:22;;;;;;;0.88;0.88;;;8.30;99.90;;;;;;5016328;28;20045;-87
2022/11/29 10:15:53;;;;;;;0.40;0.40;;;8.40;99.90;;;;;;5017485;28;20052;-84
2022/11/29 10:18:26;;;;;;;1.35;1.25;;;8.40;99.90;;;;;;4994468;28;20072;-86
2022/11/29 10:20:57;;;;;;;0.63;0.63;;;8.50;99.90;;;;;;5012778;28;20058;-85
2022/11/29 10:23:30;;;;;;;0.60;0.60;;;8.60;99.90;;;;;;5015290;28;20437;-86
2022/11/29 10:25:57;;;;;;;0.43;0.43;;;8.70;99.90;;;;;;5031332;28;20049;-85
2022/11/29 10:28:29;;;;;;;0.40;0.40;;;8.70;99.90;;;;;;4988584;28;20479;-84
2022/11/29 10:31:02;;;;;;;0.95;0.95;;;8.70;99.90;;;;;;5017724;28;20112;-85
2022/11/29 10:33:31;;;;;;;0.45;0.45;;;8.70;99.90;;;;;;5022860;28;20037;-84
2022/11/29 10:36:00;;;;;;;0.57;0.57;;;8.80;99.90;;;;;;5012568;28;20120;-86
2022/11/29 10:38:27;;;;;;;3.22;3.10;;;8.80;99.90;;;;;;5015083;28;20047;-85
2022/11/29 10:41:03;;;;;;;0.88;0.88;;;8.80;99.90;;;;;;5020117;28;20125;-84
2022/11/29 10:43:29;;;;;;;1.50;1.40;;;8.90;99.90;;;;;;5014552;28;20049;-85
2022/11/29 10:45:57;;;;;;;2.25;1.05;;;8.90;99.90;;;;;;5008304;28;20045;-86
2022/11/29 10:48:30;;;;;;;0.68;0.68;;;8.90;99.90;;;;;;5015088;28;20061;-83
2022/11/29 10:51:00;;;;;;;0.60;0.60;;;8.90;99.90;;;;;;5030666;28;20045;-84
2022/11/29 10:53:30;;;;;;;0.75;0.75;;;9.00;99.90;;;;;;4997805;28;20437;-84
2022/11/29 10:56:30;;;;;;;0.47;0.47;;;9.00;99.90;;;;;;5014275;28;20046;-85
2022/11/29 10:59:04;;;;;;;0.40;0.40;;;9.10;99.90;;;;;;5025142;28;20041;-86
2022/11/29 11:01:42;;;;;;;0.50;0.50;;;9.20;99.90;;;;;;5030778;28;20124;-86
2022/11/29 11:04:24;;;;;;;0.43;0.43;;;9.20;99.90;;;;;;5013190;28;20056;-85
2022/11/29 11:06:55;;;;;;;0.40;0.40;;;9.20;99.90;;;;;;5028465;28;20050;-84
2022/11/29 11:09:40;;;;;;;0.40;0.40;;;9.20;99.90;;;;;;5030229;28;20378;-86
2022/11/29 11:12:18;;;;;;;1.40;0.90;;;9.20;99.90;;;;;;5012699;28;20120;-85
2022/11/29 11:14:45;;;;;;;0.40;0.40;;;9.20;99.90;;;;;;4994924;28;20045;-86
2022/11/29 11:17:31;;;;;;;1.85;1.73;;;9.20;99.90;;;;;;5028909;28;20403;-86
2022/11/29 11:20:20;;;;;;;0.40;0.40;;;9.20;99.90;;;;;;5030830;28;20509;-85
2022/11/29 11:23:02;;;;;;;0.80;0.80;;;9.20;99.90;;;;;;5011608;28;20124;-86
2022/11/29 11:25:33;;;;;;;0.43;0.43;;;9.10;99.90;;;;;;5012871;28;20410;-84
2022/11/29 11:28:19;;;;;;;1.27;1.27;;;9.10;99.90;;;;;;5027432;28;20848;-85
2022/11/29 11:30:55;;;;;;;0.77;0.70;;;9.20;99.90;;;;;;5011804;28;20052;-84
2022/11/29 11:33:27;;;;;;;1.08;0.68;;;9.20;99.90;;;;;;5026025;28;21033;-83
2022/11/29 11:36:18;;;;;;;0.73;0.73;;;9.20;99.90;;;;;;5027191;28;20065;-86
2022/11/29 11:39:08;;;;;;;1.00;1.00;;;9.20;99.90;;;;;;5011012;28;20065;-85
2022/11/29 11:44:48;;;;;;;0.80;0.80;;;9.10;99.90;;;;;;5015923;28;20052;-85
2022/11/29 11:47:20;;;;;;;0.70;0.70;;;9.10;99.90;;;;;;5014218;28;20041;-85
2022/11/29 11:49:52;;;;;;;0.43;0.43;;;9.00;99.90;;;;;;5014465;28;20049;-85
2022/11/29 11:52:28;;;;;;;1.00;0.98;;;9.00;99.90;;;;;;5033692;28;20049;-86
2022/11/29 11:54:58;;;;;;;0.53;0.53;;;9.00;99.90;;;;;;5013217;28;20037;-83
2022/11/29 11:57:26;;;;;;;0.60;0.60;;;9.00;99.90;;;;;;5034146;28;20053;-85
2022/11/29 11:59:54;;;;;;;0.57;0.57;;;9.00;99.90;;;;;;5027016;28;20131;-83
2022/11/29 12:02:34;;;;;;;0.55;0.55;;;9.00;99.90;;;;;;5025293;28;20033;-85
2022/11/29 12:05:03;;;;;;;0.85;0.80;;;9.00;99.90;;;;;;5020996;28;20056;-84
2022/11/29 12:07:50;;;;;;;0.57;0.57;;;8.90;99.90;;;;;;5017789;28;20490;-83
2022/11/29 12:10:24;;;;;;;0.68;0.68;;;8.20;99.90;;;;;;5030329;28;20487;-83
2022/11/29 12:12:51;;;;;;;1.00;0.80;;;8.90;99.90;;;;;;4998443;28;20044;-84
2022/11/29 12:15:24;;;;;;;0.63;0.40;;;8.90;99.90;;;;;;5022248;28;20037;-84
2022/11/29 12:18:14;;;;;;;0.73;0.73;;;8.80;99.90;;;;;;5034071;28;20103;-85
2022/11/29 12:21:09;;;;;;;0.50;0.50;;;8.80;99.90;;;;;;4997330;28;20515;-84
2022/11/29 12:23:55;;;;;;;0.40;0.40;;;8.80;99.90;;;;;;5018018;28;20060;-85
2022/11/29 12:26:42;;;;;;;0.40;0.40;;;8.70;99.90;;;;;;5018159;28;20449;-84
2022/11/29 12:29:21;;;;;;;0.43;0.43;;;8.60;99.90;;;;;;5034101;28;20420;-88
2022/11/29 12:31:59;;;;;;;0.70;0.70;;;8.60;99.90;;;;;;5018726;28;20041;-85
2022/11/29 12:34:50;;;;;;;0.52;0.52;;;8.50;99.90;;;;;;5015318;28;20037;-86
2022/11/29 12:37:39;;;;;;;0.60;0.60;;;8.50;99.90;;;;;;5001036;28;20046;-85
2022/11/29 12:40:16;;;;;;;1.85;1.23;;;8.00;99.90;;;;;;5046565;28;20107;-86
2022/11/29 12:43:13;;;;;;;0.50;0.50;;;8.40;99.90;;;;;;5017933;28;20470;-84
2022/11/29 12:46:10;;;;;;;0.50;0.50;;;8.40;99.90;;;;;;5010413;28;20055;-84
2022/11/29 12:48:45;;;;;;;1.92;1.83;;;8.40;99.90;;;;;;5012747;28;20049;-86
2022/11/29 12:51:41;;;;;;;0.50;0.50;;;8.30;99.90;;;;;;5001061;28;20465;-84
2022/11/29 12:54:26;;;;;;;1.40;1.40;;;8.20;99.90;;;;;;5015236;28;20047;-84
2022/11/29 12:57:16;;;;;;;0.50;0.50;;;8.20;99.90;;;;;;4999393;28;20479;-82
2022/11/29 12:59:49;;;;;;;0.60;0.60;;;8.20;99.90;;;;;;5030955;28;20071;-83
2022/11/29 13:02:39;;;;;;;0.43;0.43;;;8.20;99.90;;;;;;5010915;28;20106;-84
2022/11/29 13:05:32;;;;;;;0.50;0.50;;;8.10;99.90;;;;;;5010473;28;20052;-82
2022/11/29 13:08:16;;;;;;;0.40;0.40;;;8.10;99.90;;;;;;5027755;28;20087;-80
2022/11/29 13:11:04;;;;;;;0.93;0.68;;;8.10;99.90;;;;;;5011873;28;20050;-85
2022/11/29 13:13:44;;;;;;;0.65;0.65;;;8.00;99.90;;;;;;5005199;28;20124;-85
2022/11/29 13:16:16;;;;;;;0.45;0.45;;;8.00;99.90;;;;;;5027148;28;20037;-85
2022/11/29 13:19:11;;;;;;;1.55;1.30;;;7.90;99.90;;;;;;5008102;28;20048;-85
2022/11/29 13:21:53;;;;;;;0.50;0.50;;;7.90;99.90;;;;;;5020046;28;20093;-82
2022/11/29 13:24:37;;;;;;;0.50;0.50;;;7.90;99.90;;;;;;5036793;28;20099;-84
2022/11/29 13:27:06;;;;;;;0.50;0.50;;;7.80;99.90;;;;;;5025219;28;20068;-84
2022/11/29 13:29:33;;;;;;;0.60;0.60;;;7.80;99.90;;;;;;5011247;28;20040;-83
2022/11/29 13:32:00;;;;;;;1.00;1.00;;;7.80;99.90;;;;;;5028037;28;20040;-85
2022/11/29 13:34:38;;;;;;;0.50;0.50;;;7.70;99.90;;;;;;5010744;28;20406;-85
2022/11/29 13:37:23;;;;;;;0.73;0.73;;;7.70;99.90;;;;;;5011801;28;20167;-83
2022/11/29 13:40:18;;;;;;;1.50;1.10;;;7.70;99.90;;;;;;5026414;28;20048;-84
2022/11/29 13:43:15;;;;;;;0.90;0.70;;;7.70;99.90;;;;;;5008980;28;20156;-84
2022/11/29 13:45:47;;;;;;;1.30;1.23;;;7.70;99.90;;;;;;5005063;28;20192;-83
2022/11/29 13:48:44;;;;;;;3.63;1.65;;;7.80;99.90;;;;;;5011458;28;20505;-84
2022/11/29 13:51:36;;;;;;;1.13;1.10;;;7.70;99.90;;;;;;4998212;28;20402;-83
2022/11/29 13:54:24;;;;;;;0.85;0.85;;;7.60;99.90;;;;;;5033550;28;20476;-83
2022/11/29 13:57:02;;;;;;;2.58;0.80;;;7.60;99.90;;;;;;5011329;28;20131;-84
2022/11/29 13:59:30;;;;;;;0.40;0.40;;;7.60;99.90;;;;;;5011432;28;20041;-85